Time;durP1;ratioP1;P1;durP2;ratioP2;P2;SDS_P1;SDS_P2;PMS_P1;PMS_P2;Temp;Humidity;BMP_temperature;BMP_pressure;BME280_temperature;BME280_humidity;BME280_pressure;Samples;Min_cycle;Max_cycle;Signal;HPM_P1;HPM_P2
2023/12/16 00:02:07;;;;;;;20.20;12.90;;;;;;;;;;6305333;22;20177;-81
2023/12/16 00:04:35;;;;;;;16.23;9.93;;;;;;;;;;6305367;22;20640;-82
2023/12/16 00:07:02;;;;;;;14.67;9.73;;;;;;;;;;6305130;22;20166;-82
2023/12/16 00:09:29;;;;;;;17.47;8.93;;;;;;;;;;6304692;22;20636;-82
2023/12/16 00:11:56;;;;;;;16.20;9.43;;;;;;;;;;6305001;22;20236;-82
2023/12/16 00:14:25;;;;;;;15.93;9.27;;;;;;;;;;6305194;22;20169;-81
2023/12/16 00:16:52;;;;;;;17.50;10.07;;;;;;;;;;6304516;22;20245;-81
2023/12/16 00:19:20;;;;;;;15.03;9.60;;;;;;;;;;6305055;22;20177;-82
2023/12/16 00:21:47;;;;;;;18.10;9.60;;;;;;;;;;6304108;22;20176;-82
2023/12/16 00:24:14;;;;;;;18.37;10.10;;;;;;;;;;6305291;22;20253;-82
2023/12/16 00:26:41;;;;;;;19.73;11.00;;;;;;;;;;6305270;22;20165;-81
2023/12/16 00:29:09;;;;;;;16.77;10.77;;;;;;;;;;6304296;22;20207;-81
2023/12/16 00:31:50;;;;;;;20.17;10.63;;;;;;;;;;6303820;22;20664;-81
2023/12/16 00:34:17;;;;;;;17.77;11.00;;;;;;;;;;6305088;22;20256;-82
2023/12/16 00:36:44;;;;;;;19.77;11.50;;;;;;;;;;6305250;22;20211;-81
2023/12/16 00:39:12;;;;;;;19.13;10.87;;;;;;;;;;6304398;22;20200;-82
2023/12/16 00:41:39;;;;;;;24.97;12.10;;;;;;;;;;6304496;22;20530;-82
2023/12/16 00:44:07;;;;;;;19.33;12.30;;;;;;;;;;6305217;22;20173;-82
2023/12/16 00:46:34;;;;;;;20.03;12.57;;;;;;;;;;6304724;22;20173;-81
2023/12/16 00:49:03;;;;;;;21.10;11.57;;;;;;;;;;6304676;22;20170;-82
2023/12/16 00:51:30;;;;;;;21.17;12.30;;;;;;;;;;6304411;22;20232;-82
2023/12/16 00:53:57;;;;;;;17.17;11.30;;;;;;;;;;6305396;22;20197;-82
2023/12/16 00:56:24;;;;;;;20.27;11.13;;;;;;;;;;6304977;22;20209;-82
2023/12/16 00:58:54;;;;;;;16.30;9.80;;;;;;;;;;6304972;22;20261;-82
2023/12/16 01:01:21;;;;;;;15.80;10.00;;;;;;;;;;6304631;22;20269;-81
2023/12/16 01:03:48;;;;;;;17.63;10.03;;;;;;;;;;6305031;22;20244;-82
2023/12/16 01:06:17;;;;;;;15.53;9.60;;;;;;;;;;6305321;22;20170;-82
2023/12/16 01:08:44;;;;;;;17.93;9.57;;;;;;;;;;6304526;22;20170;-81
2023/12/16 01:11:12;;;;;;;16.93;10.70;;;;;;;;;;6304608;22;20252;-81
2023/12/16 01:13:39;;;;;;;16.23;9.67;;;;;;;;;;6304368;22;20201;-81
2023/12/16 01:16:07;;;;;;;16.33;9.87;;;;;;;;;;6304415;22;20193;-80
2023/12/16 01:18:35;;;;;;;16.47;11.17;;;;;;;;;;6304771;22;20563;-81
2023/12/16 01:21:05;;;;;;;17.53;10.30;;;;;;;;;;6304850;22;20177;-80
2023/12/16 01:23:34;;;;;;;20.40;10.47;;;;;;;;;;6304905;22;20647;-82
2023/12/16 01:26:01;;;;;;;25.07;17.20;;;;;;;;;;6304076;22;20174;-82
2023/12/16 01:28:28;;;;;;;27.53;19.33;;;;;;;;;;6304669;22;20177;-81
2023/12/16 01:30:56;;;;;;;28.57;17.37;;;;;;;;;;6304420;22;20623;-82
2023/12/16 01:33:23;;;;;;;23.20;14.50;;;;;;;;;;6304310;22;20201;-81
2023/12/16 01:35:50;;;;;;;20.67;13.77;;;;;;;;;;6304682;22;20170;-82
2023/12/16 01:38:18;;;;;;;19.27;13.33;;;;;;;;;;6305703;22;20166;-82
2023/12/16 01:40:46;;;;;;;21.80;12.73;;;;;;;;;;6306233;22;20217;-82
2023/12/16 01:43:14;;;;;;;19.47;13.07;;;;;;;;;;6306508;22;20212;-82
2023/12/16 01:45:41;;;;;;;18.57;11.20;;;;;;;;;;6306416;22;20664;-82
2023/12/16 01:48:09;;;;;;;18.43;11.60;;;;;;;;;;6306827;22;20261;-83
2023/12/16 01:50:37;;;;;;;19.10;11.03;;;;;;;;;;6306378;22;20249;-82
2023/12/16 01:53:06;;;;;;;21.43;11.53;;;;;;;;;;6306592;22;20198;-82
2023/12/16 01:55:33;;;;;;;19.67;11.30;;;;;;;;;;6306264;22;20264;-82
2023/12/16 01:58:02;;;;;;;19.33;12.17;;;;;;;;;;6306574;22;20173;-82
2023/12/16 02:00:30;;;;;;;19.27;11.90;;;;;;;;;;6305837;22;20625;-83
2023/12/16 02:02:58;;;;;;;17.70;11.07;;;;;;;;;;6306272;22;20200;-82
2023/12/16 02:05:25;;;;;;;16.77;10.90;;;;;;;;;;6306858;22;20198;-81
2023/12/16 02:07:52;;;;;;;17.27;11.33;;;;;;;;;;6306794;22;20257;-82
2023/12/16 02:10:19;;;;;;;17.47;11.07;;;;;;;;;;6305683;22;20190;-82
2023/12/16 02:12:47;;;;;;;18.43;10.87;;;;;;;;;;6306240;22;20297;-81
2023/12/16 02:15:15;;;;;;;16.20;11.00;;;;;;;;;;6306606;22;20542;-82
2023/12/16 02:17:42;;;;;;;18.13;11.40;;;;;;;;;;6305833;22;20515;-81
2023/12/16 02:20:10;;;;;;;16.53;11.17;;;;;;;;;;6306515;22;20281;-82
2023/12/16 02:22:37;;;;;;;18.43;11.57;;;;;;;;;;6305285;22;20250;-82
2023/12/16 02:25:08;;;;;;;17.93;11.83;;;;;;;;;;6305916;22;20173;-82
2023/12/16 02:27:36;;;;;;;16.90;11.90;;;;;;;;;;6306491;22;20227;-82
2023/12/16 02:30:03;;;;;;;16.73;12.13;;;;;;;;;;6306942;22;20256;-82
2023/12/16 02:32:30;;;;;;;19.37;11.43;;;;;;;;;;6306538;22;20199;-81
2023/12/16 02:34:57;;;;;;;20.00;11.33;;;;;;;;;;6305860;22;20577;-82
2023/12/16 02:37:25;;;;;;;16.47;10.70;;;;;;;;;;6306554;22;20169;-81
2023/12/16 02:39:52;;;;;;;18.33;11.23;;;;;;;;;;6306157;22;20192;-82
2023/12/16 02:42:20;;;;;;;22.17;12.17;;;;;;;;;;6306142;22;20582;-80
2023/12/16 02:44:47;;;;;;;16.77;11.17;;;;;;;;;;6306493;22;20250;-82
2023/12/16 02:47:15;;;;;;;19.43;11.83;;;;;;;;;;6305925;22;20635;-82
2023/12/16 02:49:44;;;;;;;17.07;11.33;;;;;;;;;;6305719;22;20191;-82
2023/12/16 02:52:11;;;;;;;20.47;11.90;;;;;;;;;;6305878;22;20206;-82
2023/12/16 02:54:39;;;;;;;17.73;11.13;;;;;;;;;;6305496;22;20245;-82
2023/12/16 02:57:06;;;;;;;18.27;11.47;;;;;;;;;;6305643;22;20496;-82
2023/12/16 02:59:35;;;;;;;18.90;10.83;;;;;;;;;;6306077;22;20195;-82
2023/12/16 03:02:03;;;;;;;18.17;11.13;;;;;;;;;;6305487;22;20173;-82
2023/12/16 03:04:30;;;;;;;14.17;9.87;;;;;;;;;;6306047;22;20243;-82
2023/12/16 03:06:57;;;;;;;18.77;11.10;;;;;;;;;;6304047;22;20249;-82
2023/12/16 03:09:24;;;;;;;17.53;10.40;;;;;;;;;;6305496;22;20506;-82
2023/12/16 03:11:51;;;;;;;15.30;10.77;;;;;;;;;;6306432;22;20173;-82
2023/12/16 03:14:18;;;;;;;17.57;10.37;;;;;;;;;;6305232;22;20600;-80
2023/12/16 03:16:47;;;;;;;16.73;10.00;;;;;;;;;;6306413;22;20232;-82
2023/12/16 03:19:14;;;;;;;16.63;9.70;;;;;;;;;;6305508;22;20203;-82
2023/12/16 03:21:41;;;;;;;15.93;10.60;;;;;;;;;;6305051;22;20559;-82
2023/12/16 03:24:09;;;;;;;14.40;9.90;;;;;;;;;;6305842;22;20678;-82
2023/12/16 03:26:36;;;;;;;16.87;9.73;;;;;;;;;;6305453;22;20344;-82
2023/12/16 03:29:03;;;;;;;13.00;9.43;;;;;;;;;;6305185;22;20507;-81
2023/12/16 03:31:30;;;;;;;16.50;9.77;;;;;;;;;;6306138;22;20168;-82
2023/12/16 03:33:59;;;;;;;18.50;10.20;;;;;;;;;;6305150;22;20291;-83
2023/12/16 03:36:27;;;;;;;15.67;10.20;;;;;;;;;;6305221;22;20197;-83
2023/12/16 03:38:55;;;;;;;18.33;10.10;;;;;;;;;;6305813;22;20253;-82
2023/12/16 03:41:22;;;;;;;13.73;9.20;;;;;;;;;;6305172;22;20211;-82
2023/12/16 03:43:50;;;;;;;13.87;9.97;;;;;;;;;;6305237;22;20683;-83
2023/12/16 03:46:17;;;;;;;15.70;10.00;;;;;;;;;;6305599;22;20223;-82
2023/12/16 03:48:44;;;;;;;18.93;10.37;;;;;;;;;;6305288;22;20165;-82
2023/12/16 03:51:13;;;;;;;16.27;9.90;;;;;;;;;;6304575;22;20201;-82
2023/12/16 03:53:41;;;;;;;12.40;9.47;;;;;;;;;;6305693;22;20201;-82
2023/12/16 03:56:08;;;;;;;17.90;9.60;;;;;;;;;;6305392;22;20189;-82
2023/12/16 03:58:36;;;;;;;15.90;9.13;;;;;;;;;;6304653;22;20703;-82
2023/12/16 04:01:03;;;;;;;16.23;9.57;;;;;;;;;;6304539;22;20195;-82
2023/12/16 04:03:30;;;;;;;17.30;8.97;;;;;;;;;;6305108;22;20257;-82
2023/12/16 04:05:57;;;;;;;13.77;8.43;;;;;;;;;;6305121;22;20252;-82
2023/12/16 04:08:26;;;;;;;16.53;9.23;;;;;;;;;;6304866;22;20204;-82
2023/12/16 04:10:53;;;;;;;14.17;9.03;;;;;;;;;;6305183;22;20181;-82
2023/12/16 04:13:20;;;;;;;15.57;9.60;;;;;;;;;;6305163;22;20680;-81
2023/12/16 04:15:52;;;;;;;13.43;9.27;;;;;;;;;;6304680;22;20190;-81
2023/12/16 04:18:19;;;;;;;16.17;10.77;;;;;;;;;;6305013;22;20168;-82
2023/12/16 04:20:46;;;;;;;17.50;11.60;;;;;;;;;;6304922;22;20189;-82
2023/12/16 04:23:14;;;;;;;17.93;10.93;;;;;;;;;;6305185;22;20197;-80
2023/12/16 04:25:42;;;;;;;18.23;10.60;;;;;;;;;;6304698;22;20484;-82
2023/12/16 04:28:10;;;;;;;17.50;10.30;;;;;;;;;;6305495;22;20189;-84
2023/12/16 04:30:37;;;;;;;17.10;10.07;;;;;;;;;;6304807;22;20257;-82
2023/12/16 04:33:04;;;;;;;17.47;10.17;;;;;;;;;;6305387;22;20251;-81
2023/12/16 04:35:31;;;;;;;20.13;9.87;;;;;;;;;;6304998;22;20252;-82
2023/12/16 04:37:59;;;;;;;14.93;9.80;;;;;;;;;;6305760;22;20197;-82
2023/12/16 04:40:27;;;;;;;16.00;9.80;;;;;;;;;;6304592;22;20213;-82
2023/12/16 04:42:55;;;;;;;23.63;11.70;;;;;;;;;;6304665;22;20716;-81
2023/12/16 04:45:22;;;;;;;19.47;10.83;;;;;;;;;;6305619;22;20172;-81
2023/12/16 04:47:50;;;;;;;19.07;11.40;;;;;;;;;;6305073;22;20204;-83
2023/12/16 04:50:17;;;;;;;20.83;11.40;;;;;;;;;;6304202;22;20244;-82
2023/12/16 04:52:45;;;;;;;20.20;11.50;;;;;;;;;;6305055;22;20189;-82
2023/12/16 04:55:15;;;;;;;18.57;11.40;;;;;;;;;;6304930;22;20174;-82
2023/12/16 04:57:42;;;;;;;17.73;11.53;;;;;;;;;;6304825;22;20166;-81
2023/12/16 05:00:12;;;;;;;18.57;11.00;;;;;;;;;;6304612;22;20277;-82
2023/12/16 05:02:39;;;;;;;18.30;10.87;;;;;;;;;;6304695;22;20244;-83
2023/12/16 05:05:06;;;;;;;14.93;10.47;;;;;;;;;;6304220;22;20199;-82
2023/12/16 05:07:34;;;;;;;18.40;10.60;;;;;;;;;;6304739;22;20732;-82
2023/12/16 05:10:01;;;;;;;17.67;10.67;;;;;;;;;;6304997;22;20166;-82
2023/12/16 05:12:28;;;;;;;18.50;10.60;;;;;;;;;;6305278;22;20585;-82
2023/12/16 05:14:55;;;;;;;17.87;11.13;;;;;;;;;;6306604;22;20715;-82
2023/12/16 05:17:23;;;;;;;18.27;10.33;;;;;;;;;;6306872;22;20241;-82
2023/12/16 05:19:51;;;;;;;15.83;10.50;;;;;;;;;;6307077;22;20224;-82
2023/12/16 05:22:18;;;;;;;21.13;11.00;;;;;;;;;;6306999;22;20198;-82
2023/12/16 05:24:47;;;;;;;22.93;12.23;;;;;;;;;;6306999;22;20257;-81
2023/12/16 05:27:15;;;;;;;19.43;11.97;;;;;;;;;;6306447;22;20170;-82
2023/12/16 05:29:42;;;;;;;18.10;11.53;;;;;;;;;;6306952;22;20173;-82
2023/12/16 05:32:09;;;;;;;21.33;11.57;;;;;;;;;;6305862;22;20197;-82
2023/12/16 05:34:37;;;;;;;21.07;11.93;;;;;;;;;;6306155;22;20748;-82
2023/12/16 05:37:05;;;;;;;19.70;12.40;;;;;;;;;;6306407;22;20481;-82
2023/12/16 05:39:32;;;;;;;23.50;13.07;;;;;;;;;;6306807;22;20197;-82
2023/12/16 05:41:59;;;;;;;19.83;12.20;;;;;;;;;;6307179;22;20628;-82
2023/12/16 05:44:26;;;;;;;17.20;11.83;;;;;;;;;;6306508;22;20206;-82
2023/12/16 05:46:54;;;;;;;18.50;12.47;;;;;;;;;;6306145;22;20175;-82
2023/12/16 05:49:21;;;;;;;18.33;12.40;;;;;;;;;;6307222;22;20205;-82
2023/12/16 05:51:50;;;;;;;19.40;12.30;;;;;;;;;;6306537;22;20189;-82
2023/12/16 05:54:17;;;;;;;16.87;11.10;;;;;;;;;;6306359;22;20215;-82
2023/12/16 05:56:45;;;;;;;16.93;10.57;;;;;;;;;;6306352;22;20252;-81
2023/12/16 05:59:12;;;;;;;17.83;11.00;;;;;;;;;;6306500;22;20173;-81
2023/12/16 06:01:39;;;;;;;15.60;10.20;;;;;;;;;;6305792;22;20200;-82
2023/12/16 06:04:06;;;;;;;15.60;10.63;;;;;;;;;;6307314;22;20170;-82
2023/12/16 06:06:33;;;;;;;16.23;9.73;;;;;;;;;;6306317;22;20201;-82
2023/12/16 06:09:02;;;;;;;14.90;10.17;;;;;;;;;;6305741;22;20576;-82
2023/12/16 06:11:29;;;;;;;15.57;9.93;;;;;;;;;;6306777;22;20173;-82
2023/12/16 06:13:56;;;;;;;16.90;10.07;;;;;;;;;;6306366;22;20288;-81
2023/12/16 06:16:23;;;;;;;14.73;9.73;;;;;;;;;;6305622;22;20191;-81
2023/12/16 06:18:51;;;;;;;17.50;10.30;;;;;;;;;;6306523;22;20177;-82
2023/12/16 06:21:18;;;;;;;16.27;10.07;;;;;;;;;;6305936;22;20637;-81
2023/12/16 06:23:45;;;;;;;15.40;10.10;;;;;;;;;;6305840;22;20197;-81
2023/12/16 06:26:14;;;;;;;15.80;9.70;;;;;;;;;;6306015;22;20166;-82
2023/12/16 06:28:42;;;;;;;16.77;9.83;;;;;;;;;;6306354;22;20172;-82
2023/12/16 06:31:15;;;;;;;16.23;9.53;;;;;;;;;;6305706;22;20702;-82
2023/12/16 06:33:42;;;;;;;14.13;10.03;;;;;;;;;;6305727;22;20272;-82
2023/12/16 06:36:10;;;;;;;17.73;9.53;;;;;;;;;;6304906;22;20566;-81
2023/12/16 06:38:37;;;;;;;15.97;10.20;;;;;;;;;;6306339;22;20215;-82
2023/12/16 06:41:04;;;;;;;16.77;10.40;;;;;;;;;;6306453;22;20212;-81
2023/12/16 06:43:33;;;;;;;17.00;9.97;;;;;;;;;;6306296;22;20200;-83
2023/12/16 06:46:00;;;;;;;14.33;9.70;;;;;;;;;;6305569;22;20267;-82
2023/12/16 06:48:28;;;;;;;17.93;10.10;;;;;;;;;;6306343;22;20197;-82
2023/12/16 06:50:57;;;;;;;14.53;9.57;;;;;;;;;;6305570;22;20186;-82
2023/12/16 06:53:24;;;;;;;16.90;9.90;;;;;;;;;;6305900;22;20208;-82
2023/12/16 06:55:53;;;;;;;18.83;10.17;;;;;;;;;;6306490;22;20553;-81
2023/12/16 06:58:20;;;;;;;19.93;10.00;;;;;;;;;;6305831;22;20176;-82
2023/12/16 07:00:49;;;;;;;16.00;10.00;;;;;;;;;;6305293;22;20243;-82
2023/12/16 07:03:16;;;;;;;18.57;10.00;;;;;;;;;;6305760;22;20248;-82
2023/12/16 07:05:43;;;;;;;15.97;10.13;;;;;;;;;;6305201;22;20208;-82
2023/12/16 07:08:11;;;;;;;15.50;9.80;;;;;;;;;;6306479;22;20247;-82
2023/12/16 07:10:39;;;;;;;17.50;10.47;;;;;;;;;;6306085;22;20569;-81
2023/12/16 07:13:07;;;;;;;17.43;10.07;;;;;;;;;;6305873;22;20173;-82
2023/12/16 07:15:34;;;;;;;18.23;9.93;;;;;;;;;;6305530;22;20549;-82
2023/12/16 07:18:03;;;;;;;17.90;10.37;;;;;;;;;;6305631;22;20197;-81
2023/12/16 07:20:30;;;;;;;19.73;11.60;;;;;;;;;;6305274;22;20176;-81
2023/12/16 07:22:57;;;;;;;15.00;10.03;;;;;;;;;;6306098;22;20172;-82
2023/12/16 07:25:25;;;;;;;19.80;10.60;;;;;;;;;;6305802;22;20193;-82
2023/12/16 07:27:52;;;;;;;17.47;11.10;;;;;;;;;;6305470;22;20193;-82
2023/12/16 07:30:19;;;;;;;19.20;10.77;;;;;;;;;;6304762;22;20545;-82
2023/12/16 07:32:46;;;;;;;18.57;11.33;;;;;;;;;;6305136;22;20172;-81
2023/12/16 07:35:15;;;;;;;17.57;11.70;;;;;;;;;;6305066;22;20205;-82
2023/12/16 07:37:42;;;;;;;19.00;11.60;;;;;;;;;;6305785;22;20244;-82
2023/12/16 07:40:10;;;;;;;15.83;11.27;;;;;;;;;;6305258;22;20209;-82
2023/12/16 07:42:38;;;;;;;14.53;11.03;;;;;;;;;;6304961;22;20616;-82
2023/12/16 07:45:05;;;;;;;17.67;11.30;;;;;;;;;;6305799;22;20201;-83
2023/12/16 07:47:33;;;;;;;18.20;12.77;;;;;;;;;;6305263;22;20626;-83
2023/12/16 07:50:00;;;;;;;20.30;14.30;;;;;;;;;;6305268;22;20197;-83
2023/12/16 07:52:29;;;;;;;18.43;12.07;;;;;;;;;;6303560;22;20512;-83
2023/12/16 07:54:56;;;;;;;20.37;11.37;;;;;;;;;;6305061;22;20686;-82
2023/12/16 07:57:23;;;;;;;17.07;11.00;;;;;;;;;;6304815;22;20681;-82
2023/12/16 07:59:51;;;;;;;18.47;11.00;;;;;;;;;;6304775;22;20674;-82
2023/12/16 08:02:19;;;;;;;15.87;11.27;;;;;;;;;;6304032;22;20279;-83
2023/12/16 08:04:46;;;;;;;17.70;12.93;;;;;;;;;;6302720;22;20175;-82
2023/12/16 08:07:14;;;;;;;24.37;14.37;;;;;;;;;;6303314;22;20205;-84
2023/12/16 08:09:42;;;;;;;17.43;12.47;;;;;;;;;;6304853;22;20203;-82
2023/12/16 08:12:09;;;;;;;16.20;12.03;;;;;;;;;;6305284;22;20260;-83
2023/12/16 08:14:37;;;;;;;16.00;10.70;;;;;;;;;;6303055;22;20292;-83
2023/12/16 08:17:03;;;;;;;17.33;11.00;;;;;;;;;;6305363;22;20583;-83
2023/12/16 08:19:30;;;;;;;23.83;16.50;;;;;;;;;;6304486;22;20169;-83
2023/12/16 08:21:59;;;;;;;33.30;23.90;;;;;;;;;;6305598;22;20203;-84
2023/12/16 08:24:29;;;;;;;29.97;21.07;;;;;;;;;;6304249;22;20173;-82
2023/12/16 08:26:57;;;;;;;35.47;22.37;;;;;;;;;;6304477;22;20173;-81
2023/12/16 08:29:25;;;;;;;30.57;20.10;;;;;;;;;;6305420;22;20206;-81
2023/12/16 08:31:52;;;;;;;24.20;17.17;;;;;;;;;;6305111;22;20540;-80
2023/12/16 08:34:22;;;;;;;30.30;20.60;;;;;;;;;;6305343;22;20201;-81
2023/12/16 08:36:49;;;;;;;38.10;30.73;;;;;;;;;;6305505;22;20174;-81
2023/12/16 08:39:17;;;;;;;30.60;24.00;;;;;;;;;;6305415;22;20637;-80
2023/12/16 08:41:44;;;;;;;23.40;15.83;;;;;;;;;;6304609;22;20197;-80
2023/12/16 08:44:13;;;;;;;22.97;17.70;;;;;;;;;;6305310;22;20644;-81
2023/12/16 08:46:43;;;;;;;23.93;17.80;;;;;;;;;;6305303;22;20170;-81
2023/12/16 08:49:10;;;;;;;23.27;16.80;;;;;;;;;;6305460;22;20185;-81
2023/12/16 08:51:38;;;;;;;22.40;16.67;;;;;;;;;;6305781;22;20167;-81
2023/12/16 08:54:05;;;;;;;20.20;15.37;;;;;;;;;;6305351;22;20236;-81
2023/12/16 08:56:32;;;;;;;18.63;14.40;;;;;;;;;;6304925;22;20571;-80
2023/12/16 08:58:59;;;;;;;16.87;12.87;;;;;;;;;;6305333;22;20189;-80
2023/12/16 09:01:28;;;;;;;17.60;12.60;;;;;;;;;;6305236;22;20224;-81
2023/12/16 09:03:55;;;;;;;15.80;10.60;;;;;;;;;;6305227;22;20166;-81
2023/12/16 09:06:24;;;;;;;12.47;9.83;;;;;;;;;;6305489;22;20170;-81
2023/12/16 09:08:51;;;;;;;16.77;10.87;;;;;;;;;;6305755;22;20166;-81
2023/12/16 09:11:18;;;;;;;37.60;21.53;;;;;;;;;;6304543;22;20176;-81
2023/12/16 09:13:45;;;;;;;33.63;20.77;;;;;;;;;;6305288;22;20204;-81
2023/12/16 09:16:12;;;;;;;35.47;22.90;;;;;;;;;;6305225;22;20234;-81
2023/12/16 09:18:42;;;;;;;31.60;19.43;;;;;;;;;;6305154;22;20198;-81
2023/12/16 09:21:09;;;;;;;18.33;13.37;;;;;;;;;;6305029;22;20189;-81
2023/12/16 09:23:36;;;;;;;15.70;9.73;;;;;;;;;;6305047;22;20257;-80
2023/12/16 09:26:05;;;;;;;13.83;10.57;;;;;;;;;;6305298;22;20252;-80
2023/12/16 09:28:32;;;;;;;19.37;11.77;;;;;;;;;;6305046;22;20254;-81
2023/12/16 09:30:59;;;;;;;14.17;11.00;;;;;;;;;;6304781;22;20624;-81
2023/12/16 09:33:26;;;;;;;16.97;13.50;;;;;;;;;;6305080;22;20632;-81
2023/12/16 09:35:55;;;;;;;24.47;17.90;;;;;;;;;;6304647;22;21004;-79
2023/12/16 09:38:22;;;;;;;17.53;13.30;;;;;;;;;;6305002;22;20170;-80
2023/12/16 09:40:49;;;;;;;17.00;13.10;;;;;;;;;;6305619;22;20185;-81
2023/12/16 09:43:17;;;;;;;23.03;20.57;;;;;;;;;;6305011;22;20170;-80
2023/12/16 09:45:47;;;;;;;17.63;15.57;;;;;;;;;;6304979;22;20253;-81
2023/12/16 09:48:18;;;;;;;17.37;15.03;;;;;;;;;;6305212;22;20249;-80
2023/12/16 09:50:45;;;;;;;15.33;13.77;;;;;;;;;;6304950;22;20180;-81
2023/12/16 09:53:14;;;;;;;13.43;8.73;;;;;;;;;;6304935;22;20584;-80
2023/12/16 09:55:41;;;;;;;21.00;14.03;;;;;;;;;;6304713;22;20743;-81
2023/12/16 09:58:11;;;;;;;26.80;15.03;;;;;;;;;;6305260;22;20173;-81
2023/12/16 10:00:41;;;;;;;18.07;10.43;;;;;;;;;;6306524;22;20268;-80
2023/12/16 10:03:08;;;;;;;23.73;15.63;;;;;;;;;;6306731;22;20249;-80
2023/12/16 10:05:36;;;;;;;17.93;8.57;;;;;;;;;;6307413;22;20166;-80
2023/12/16 10:08:04;;;;;;;13.53;7.57;;;;;;;;;;6305426;22;20256;-81
2023/12/16 10:10:33;;;;;;;14.00;7.40;;;;;;;;;;6306876;22;20224;-80
2023/12/16 10:13:02;;;;;;;16.67;8.63;;;;;;;;;;6306716;22;20223;-81
2023/12/16 10:15:31;;;;;;;13.60;7.67;;;;;;;;;;6306660;22;20201;-81
2023/12/16 10:17:58;;;;;;;15.00;8.10;;;;;;;;;;6306675;22;20166;-81
2023/12/16 10:20:25;;;;;;;14.13;8.40;;;;;;;;;;6306676;22;20197;-80
2023/12/16 10:22:52;;;;;;;13.20;7.80;;;;;;;;;;6306550;22;20170;-81
2023/12/16 10:25:19;;;;;;;15.80;7.67;;;;;;;;;;6307050;22;20170;-81
2023/12/16 10:27:48;;;;;;;12.47;7.27;;;;;;;;;;6305981;22;20546;-81
2023/12/16 10:30:16;;;;;;;13.10;7.60;;;;;;;;;;6306465;22;20716;-81
2023/12/16 10:32:43;;;;;;;13.07;8.47;;;;;;;;;;6306312;22;20170;-80
2023/12/16 10:35:10;;;;;;;13.87;8.67;;;;;;;;;;6306350;22;20241;-80
2023/12/16 10:37:38;;;;;;;15.07;10.50;;;;;;;;;;6305723;22;20241;-81
2023/12/16 10:40:06;;;;;;;20.70;13.63;;;;;;;;;;6306244;22;20260;-81
2023/12/16 10:42:33;;;;;;;19.50;12.60;;;;;;;;;;6306244;22;20172;-81
2023/12/16 10:45:02;;;;;;;16.23;10.70;;;;;;;;;;6306401;22;20545;-81
2023/12/16 10:47:30;;;;;;;19.43;11.17;;;;;;;;;;6306438;22;20199;-80
2023/12/16 10:50:00;;;;;;;20.73;11.53;;;;;;;;;;6306062;22;20500;-80
2023/12/16 10:52:29;;;;;;;21.13;12.43;;;;;;;;;;6305743;22;20173;-81
2023/12/16 10:54:58;;;;;;;19.77;11.80;;;;;;;;;;6305845;22;20591;-80
2023/12/16 10:57:30;;;;;;;19.27;12.13;;;;;;;;;;6306020;22;20169;-81
2023/12/16 11:00:04;;;;;;;20.73;13.03;;;;;;;;;;6306099;22;20606;-81
2023/12/16 11:02:38;;;;;;;19.00;13.07;;;;;;;;;;6306341;22;20201;-81
2023/12/16 11:05:08;;;;;;;19.07;11.90;;;;;;;;;;6306433;22;20717;-81
2023/12/16 11:07:38;;;;;;;20.07;13.53;;;;;;;;;;6305468;22;20640;-81
2023/12/16 11:10:07;;;;;;;19.63;11.13;;;;;;;;;;6306121;22;20176;-82
2023/12/16 11:12:35;;;;;;;20.93;10.87;;;;;;;;;;6306319;22;20173;-81
2023/12/16 11:15:03;;;;;;;18.13;10.93;;;;;;;;;;6305944;22;20240;-81
2023/12/16 11:17:33;;;;;;;17.27;9.40;;;;;;;;;;6305999;22;20510;-81
2023/12/16 11:20:03;;;;;;;15.82;9.45;;;;;;;;;;6305819;22;20257;-82
2023/12/16 11:22:31;;;;;;;13.27;8.68;;;;;;;;;;6306061;22;20201;-78
2023/12/16 11:24:59;;;;;;;16.17;7.47;;;;;;;;;;6306152;22;20190;-79
2023/12/16 11:27:29;;;;;;;14.17;5.67;;;;;;;;;;6306250;22;20244;-82
2023/12/16 11:29:57;;;;;;;15.00;7.50;;;;;;;;;;6306226;22;20170;-79
2023/12/16 11:32:25;;;;;;;16.47;8.57;;;;;;;;;;6305523;22;20168;-81
2023/12/16 11:34:53;;;;;;;13.27;7.33;;;;;;;;;;6305545;22;20213;-81
2023/12/16 11:37:44;;;;;;;13.43;5.70;;;;;;;;;;6306118;22;20189;-81
2023/12/16 11:40:26;;;;;;;15.67;6.40;;;;;;;;;;6282822;22;20177;-80
2023/12/16 11:43:02;;;;;;;12.88;5.00;;;;;;;;;;6305749;22;20170;-81
2023/12/16 11:45:39;;;;;;;11.17;3.63;;;;;;;;;;6306016;22;20239;-79
2023/12/16 11:48:06;;;;;;;11.52;4.85;;;;;;;;;;6305589;22;20169;-81
2023/12/16 11:50:34;;;;;;;9.53;3.00;;;;;;;;;;6305091;22;20201;-81
2023/12/16 11:53:01;;;;;;;8.47;2.90;;;;;;;;;;6306276;22;20237;-80
2023/12/16 11:55:29;;;;;;;7.28;3.17;;;;;;;;;;6305696;22;20229;-82
2023/12/16 11:57:57;;;;;;;9.73;3.53;;;;;;;;;;6305272;22;20197;-80
2023/12/16 12:00:24;;;;;;;12.70;4.55;;;;;;;;;;6305250;22;20735;-81
2023/12/16 12:02:53;;;;;;;9.05;3.10;;;;;;;;;;6305875;22;20547;-79
2023/12/16 12:05:21;;;;;;;8.30;3.38;;;;;;;;;;6305568;22;20260;-81
2023/12/16 12:07:48;;;;;;;7.25;3.15;;;;;;;;;;6305544;22;20201;-80
2023/12/16 12:10:15;;;;;;;10.10;3.45;;;;;;;;;;6305386;22;20948;-81
2023/12/16 12:12:42;;;;;;;8.98;3.78;;;;;;;;;;6306176;22;20244;-81
2023/12/16 12:15:11;;;;;;;9.38;3.67;;;;;;;;;;6305610;22;20197;-81
2023/12/16 12:17:38;;;;;;;8.65;3.58;;;;;;;;;;6305299;22;20723;-80
2023/12/16 12:20:06;;;;;;;9.50;2.95;;;;;;;;;;6305157;22;20170;-80
2023/12/16 12:22:34;;;;;;;10.65;3.55;;;;;;;;;;6304873;22;20517;-80
2023/12/16 12:25:01;;;;;;;8.57;3.40;;;;;;;;;;6305258;22;20648;-80
2023/12/16 12:27:29;;;;;;;8.27;2.92;;;;;;;;;;6305767;22;20166;-81
2023/12/16 12:29:57;;;;;;;8.60;3.20;;;;;;;;;;6305071;22;20166;-80
2023/12/16 12:32:26;;;;;;;8.80;3.33;;;;;;;;;;6305591;22;20667;-80
2023/12/16 12:35:00;;;;;;;7.57;2.80;;;;;;;;;;6305527;22;20185;-81
2023/12/16 12:37:27;;;;;;;7.60;2.97;;;;;;;;;;6305370;22;20185;-81
2023/12/16 12:39:58;;;;;;;8.68;3.40;;;;;;;;;;6305114;22;20201;-81
2023/12/16 12:42:26;;;;;;;12.32;3.85;;;;;;;;;;6305748;22;20252;-80
2023/12/16 12:44:53;;;;;;;8.65;3.80;;;;;;;;;;6305364;22;20573;-81
2023/12/16 12:47:32;;;;;;;11.07;3.42;;;;;;;;;;6305039;22;20170;-80
2023/12/16 12:49:59;;;;;;;9.15;2.67;;;;;;;;;;6305185;22;20169;-81
2023/12/16 12:52:36;;;;;;;9.73;2.93;;;;;;;;;;6305276;22;20197;-81
2023/12/16 12:55:03;;;;;;;10.83;2.97;;;;;;;;;;6305261;22;20248;-79
2023/12/16 12:57:29;;;;;;;10.75;3.03;;;;;;;;;;6305252;22;20220;-81
2023/12/16 12:59:56;;;;;;;9.18;2.40;;;;;;;;;;6304858;22;20690;-81
2023/12/16 13:02:24;;;;;;;5.82;2.30;;;;;;;;;;6305218;22;20173;-81
2023/12/16 13:04:52;;;;;;;10.83;2.93;;;;;;;;;;6305057;22;20197;-81
2023/12/16 13:07:19;;;;;;;9.38;3.70;;;;;;;;;;6305078;22;20176;-81
2023/12/16 13:09:47;;;;;;;7.10;3.28;;;;;;;;;;6304870;22;20192;-80
2023/12/16 13:12:14;;;;;;;10.70;3.70;;;;;;;;;;6305392;22;20198;-80
2023/12/16 13:14:42;;;;;;;7.23;3.20;;;;;;;;;;6305114;22;20250;-81
2023/12/16 13:17:09;;;;;;;6.87;2.93;;;;;;;;;;6304398;22;20694;-80
2023/12/16 13:19:37;;;;;;;9.40;3.17;;;;;;;;;;6304587;22;20207;-81
2023/12/16 13:22:06;;;;;;;8.70;2.53;;;;;;;;;;6305518;22;20170;-80
2023/12/16 13:24:33;;;;;;;5.77;2.70;;;;;;;;;;6305322;22;20219;-80
2023/12/16 13:27:00;;;;;;;8.95;2.60;;;;;;;;;;6304724;22;20249;-80
2023/12/16 13:29:27;;;;;;;9.43;2.78;;;;;;;;;;6304628;22;20547;-81
2023/12/16 13:31:55;;;;;;;8.70;2.67;;;;;;;;;;6304754;22;20186;-80
2023/12/16 13:34:23;;;;;;;7.77;2.47;;;;;;;;;;6306385;22;20166;-80
2023/12/16 13:36:51;;;;;;;8.65;2.20;;;;;;;;;;6307349;22;20198;-80
2023/12/16 13:39:20;;;;;;;8.77;2.63;;;;;;;;;;6307044;22;20166;-80
2023/12/16 13:41:47;;;;;;;9.83;3.03;;;;;;;;;;6307127;22;20170;-80
2023/12/16 13:44:14;;;;;;;4.65;2.00;;;;;;;;;;6307067;22;20540;-81
2023/12/16 13:46:43;;;;;;;8.87;2.47;;;;;;;;;;6306608;22;20166;-81
2023/12/16 13:49:12;;;;;;;7.70;1.97;;;;;;;;;;6307537;22;20273;-81
2023/12/16 13:51:39;;;;;;;8.73;2.57;;;;;;;;;;6306935;22;20188;-81
2023/12/16 13:54:07;;;;;;;9.60;2.30;;;;;;;;;;6307162;22;20170;-80
2023/12/16 13:56:35;;;;;;;9.67;2.23;;;;;;;;;;6306806;22;20255;-81
2023/12/16 13:59:02;;;;;;;10.50;3.97;;;;;;;;;;6307217;22;20194;-81
2023/12/16 14:01:30;;;;;;;10.77;2.63;;;;;;;;;;6306079;22;20296;-82
2023/12/16 14:03:57;;;;;;;5.57;2.13;;;;;;;;;;6306721;22;20569;-80
2023/12/16 14:06:24;;;;;;;7.73;2.60;;;;;;;;;;6306456;22;20236;-80
2023/12/16 14:08:51;;;;;;;8.90;2.30;;;;;;;;;;6306429;22;20201;-81
2023/12/16 14:11:18;;;;;;;8.03;2.40;;;;;;;;;;6307212;22;20180;-80
2023/12/16 14:13:47;;;;;;;10.73;3.43;;;;;;;;;;6307097;22;20169;-80
2023/12/16 14:16:14;;;;;;;15.03;9.13;;;;;;;;;;6306260;22;20198;-81
2023/12/16 14:18:41;;;;;;;10.43;4.37;;;;;;;;;;6306696;22;20209;-80
2023/12/16 14:21:09;;;;;;;14.17;6.10;;;;;;;;;;6306593;22;20174;-81
2023/12/16 14:23:36;;;;;;;7.77;2.20;;;;;;;;;;6307195;22;20170;-81
2023/12/16 14:26:03;;;;;;;4.73;1.60;;;;;;;;;;6306482;22;20185;-81
2023/12/16 14:28:30;;;;;;;6.63;2.40;;;;;;;;;;6306810;22;20202;-80